Time,TemperatureF,DewpointF,PressureIn,WindDirection,WindDirectionDegrees,WindSpeedMPH,WindSpeedGustMPH,Humidity,HourlyPrecipIn,Conditions,Clouds,dailyrainin,SolarRadiationWatts/m^2,SoftwareType,DateUTC
2014-04-20 00:00:00,43.0,32.0,-100.00,SSE,157,5.0,-999.0,64,-99.99,,,-99.99,0.000000,,2014-04-20 05:00:00,
2014-04-20 00:44:00,43.0,32.0,-100.00,SSE,157,5.0,-999.0,64,-99.99,,,-99.99,0.000000,,2014-04-20 05:44:00,
2014-04-20 00:53:00,43.0,32.0,-100.00,SSE,157,5.0,-999.0,64,-99.99,,,-99.99,0.000000,,2014-04-20 05:53:00,
2014-04-20 01:00:00,47.0,33.0,-100.00,SSE,157,6.0,-999.0,58,-99.99,,,-99.99,0.000000,,2014-04-20 06:00:00,
2014-04-20 01:42:00,47.0,33.0,-100.00,SSE,157,6.0,-999.0,58,-99.99,,,-99.99,0.000000,,2014-04-20 06:42:00,
2014-04-20 01:52:00,47.0,33.0,-100.00,SSE,157,6.0,-999.0,58,-99.99,,,-99.99,0.000000,,2014-04-20 06:52:00,
2014-04-20 02:00:00,49.0,33.0,-100.00,South,180,7.0,-999.0,54,-99.99,,,-99.99,0.000000,,2014-04-20 07:00:00,
2014-04-20 02:42:00,49.0,33.0,-100.00,South,180,7.0,-999.0,54,-99.99,,,-99.99,0.000000,,2014-04-20 07:42:00,
2014-04-20 02:52:00,49.0,33.0,-100.00,South,180,7.0,-999.0,54,-99.99,,,-99.99,0.000000,,2014-04-20 07:52:00,
2014-04-20 03:00:00,50.0,34.0,-100.00,South,180,7.0,-999.0,53,-99.99,,,-99.99,0.000000,,2014-04-20 08:00:00,
2014-04-20 03:43:00,50.0,34.0,-100.00,South,180,7.0,-999.0,53,-99.99,,,-99.99,0.000000,,2014-04-20 08:43:00,
2014-04-20 03:52:00,50.0,34.0,-100.00,South,180,7.0,-999.0,53,-99.99,,,-99.99,0.000000,,2014-04-20 08:52:00,
2014-04-20 05:00:00,48.0,34.0,-100.00,South,180,4.0,-999.0,59,-99.99,,,-99.99,0.000000,,2014-04-20 10:00:00,
2014-04-20 05:43:00,48.0,34.0,-100.00,South,180,4.0,-999.0,59,-99.99,,,-99.99,0.000000,,2014-04-20 10:43:00,
2014-04-20 05:53:00,48.0,34.0,-100.00,South,180,4.0,-999.0,59,-99.99,,,-99.99,0.000000,,2014-04-20 10:53:00,
2014-04-20 06:00:00,46.0,35.0,-100.00,SSE,157,5.0,-999.0,65,-99.99,,,-99.99,0.000000,,2014-04-20 11:00:00,
2014-04-20 06:43:00,46.0,35.0,-100.00,SSE,157,5.0,-999.0,65,-99.99,,,-99.99,0.000000,,2014-04-20 11:43:00,
2014-04-20 06:52:00,46.0,35.0,-100.00,SSE,157,5.0,-999.0,65,-99.99,,,-99.99,0.000000,,2014-04-20 11:52:00,
2014-04-20 07:00:00,44.0,35.0,-100.00,SSE,157,3.0,-999.0,70,-99.99,,,-99.99,4.640000,,2014-04-20 12:00:00,
2014-04-20 07:42:00,44.0,35.0,-100.00,SSE,157,3.0,-999.0,70,-99.99,,,-99.99,4.640000,,2014-04-20 12:42:00,
2014-04-20 07:53:00,44.0,35.0,-100.00,SSE,157,3.0,-999.0,70,-99.99,,,-99.99,4.640000,,2014-04-20 12:53:00,
2014-04-20 08:00:00,43.0,36.0,-100.00,SSE,157,4.0,-999.0,77,0.01,,,-99.99,23.200001,,2014-04-20 13:00:00,
2014-04-20 08:42:00,43.0,36.0,-100.00,SSE,157,4.0,-999.0,77,0.01,,,-99.99,23.200001,,2014-04-20 13:42:00,
2014-04-20 08:52:00,43.0,36.0,-100.00,SSE,157,4.0,-999.0,77,0.01,,,-99.99,23.200001,,2014-04-20 13:52:00,